Time,TemperatureF,DewpointF,PressureIn,WindDirection,WindDirectionDegrees,WindSpeedMPH,WindSpeedGustMPH,Humidity,HourlyPrecipIn,Conditions,Clouds,dailyrainin,SoftwareType,DateUTC
2014-04-19 00:01:00,36.5,28.1,30.04,North,0,0.0,0.0,71,0.00,,,0.00,WUHU216HW,2014-04-19 05:01:00,
2014-04-19 00:06:00,36.4,28.2,30.03,North,0,0.0,0.0,72,0.00,,,0.00,WUHU216HW,2014-04-19 05:06:00,
2014-04-19 00:11:00,36.2,28.0,30.04,North,0,0.0,0.0,72,0.00,,,0.00,WUHU216HW,2014-04-19 05:11:00,
2014-04-19 00:16:00,35.8,27.6,30.03,North,0,0.0,0.0,72,0.00,,,0.00,WUHU216HW,2014-04-19 05:16:00,
2014-04-19 00:21:00,35.6,27.5,30.03,North,0,0.0,0.0,72,0.00,,,0.00,WUHU216HW,2014-04-19 05:21:00,
2014-04-19 00:26:00,35.6,27.5,30.03,North,0,0.0,0.0,72,0.00,,,0.00,WUHU216HW,2014-04-19 05:26:00,
2014-04-19 00:31:00,35.5,27.6,30.03,North,0,0.0,0.0,73,0.00,,,0.00,WUHU216HW,2014-04-19 05:31:00,
2014-04-19 00:36:00,35.5,27.3,30.03,North,0,0.0,0.0,72,0.00,,,0.00,WUHU216HW,2014-04-19 05:36:00,
2014-04-19 00:41:00,35.3,27.5,30.03,North,0,0.0,0.0,73,0.00,,,0.00,WUHU216HW,2014-04-19 05:41:00,
2014-04-19 00:46:00,35.3,27.5,30.03,North,0,0.0,0.0,73,0.00,,,0.00,WUHU216HW,2014-04-19 05:46:00,
2014-04-19 00:51:00,35.3,27.5,30.04,North,0,0.0,0.0,73,0.00,,,0.00,WUHU216HW,2014-04-19 05:51:00,
2014-04-19 00:56:00,35.3,27.5,30.04,North,0,0.0,0.0,73,0.00,,,0.00,WUHU216HW,2014-04-19 05:56:00,
2014-04-19 01:01:00,35.1,27.3,30.03,North,0,0.0,0.0,73,0.00,,,0.00,WUHU216HW,2014-04-19 06:01:00,
2014-04-19 01:06:00,35.1,26.9,30.03,North,0,0.0,0.0,72,0.00,,,0.00,WUHU216HW,2014-04-19 06:06:00,
2014-04-19 01:11:00,34.9,27.1,30.03,North,0,0.0,0.0,73,0.00,,,0.00,WUHU216HW,2014-04-19 06:11:00,
2014-04-19 01:16:00,34.9,26.7,30.03,North,0,0.0,0.0,72,0.00,,,0.00,WUHU216HW,2014-04-19 06:16:00,
2014-04-19 01:21:00,34.9,26.7,30.03,North,0,0.0,0.0,72,0.00,,,0.00,WUHU216HW,2014-04-19 06:21:00,
2014-04-19 01:26:00,34.9,26.7,30.04,North,0,0.0,0.0,72,0.00,,,0.00,WUHU216HW,2014-04-19 06:26:00,
2014-04-19 01:31:00,34.9,26.7,30.03,North,0,0.0,0.0,72,0.00,,,0.00,WUHU216HW,2014-04-19 06:31:00,
2014-04-19 01:35:00,34.9,26.7,30.03,North,0,0.0,0.0,72,0.00,,,0.00,WUHU216HW,2014-04-19 06:35:00,
2014-04-19 01:40:00,34.7,26.6,30.04,North,0,0.0,0.0,72,0.00,,,0.00,WUHU216HW,2014-04-19 06:40:00,
2014-04-19 01:45:00,34.7,26.6,30.04,North,0,0.0,0.0,72,0.00,,,0.00,WUHU216HW,2014-04-19 06:45:00,
2014-04-19 01:50:00,34.7,26.6,30.04,North,0,0.0,0.0,72,0.00,,,0.00,WUHU216HW,2014-04-19 06:50:00,
2014-04-19 01:55:00,34.6,26.4,30.04,North,0,0.0,0.0,72,0.00,,,0.00,WUHU216HW,2014-04-19 06:55:00,
2014-04-19 02:00:00,34.6,26.4,30.04,North,0,0.0,0.0,72,0.00,,,0.00,WUHU216HW,2014-04-19 07:00:00,
2014-04-19 02:05:00,34.6,26.4,30.03,North,0,0.0,0.0,72,0.00,,,0.00,WUHU216HW,2014-04-19 07:05:00,
2014-04-19 02:10:00,34.6,26.4,30.04,North,0,0.0,0.0,72,0.00,,,0.00,WUHU216HW,2014-04-19 07:10:00,
2014-04-19 02:15:00,34.6,26.4,30.04,North,0,0.0,0.0,72,0.00,,,0.00,WUHU216HW,2014-04-19 07:15:00,
2014-04-19 02:20:00,34.4,26.2,30.04,North,0,0.0,0.0,72,0.00,,,0.00,WUHU216HW,2014-04-19 07:20:00,
2014-04-19 02:25:00,34.4,26.2,30.04,North,0,0.0,0.0,72,0.00,,,0.00,WUHU216HW,2014-04-19 07:25:00,
2014-04-19 02:30:00,34.4,26.2,30.04,North,0,0.0,0.0,72,0.00,,,0.00,WUHU216HW,2014-04-19 07:30:00,
2014-04-19 02:35:00,34.2,25.8,30.04,North,0,0.0,0.0,71,0.00,,,0.00,WUHU216HW,2014-04-19 07:35:00,
2014-04-19 02:40:00,34.2,25.8,30.04,North,0,0.0,0.0,71,0.00,,,0.00,WUHU216HW,2014-04-19 07:40:00,
2014-04-19 02:45:00,34.2,25.8,30.04,North,0,0.0,0.0,71,0.00,,,0.00,WUHU216HW,2014-04-19 07:45:00,
2014-04-19 02:50:00,34.2,25.8,30.04,North,0,0.0,0.0,71,0.00,,,0.00,WUHU216HW,2014-04-19 07:50:00,
2014-04-19 02:55:00,34.2,25.8,30.04,North,0,0.0,0.0,71,0.00,,,0.00,WUHU216HW,2014-04-19 07:55:00,
2014-04-19 03:00:00,34.0,25.6,30.04,North,0,0.0,0.0,71,0.00,,,0.00,WUHU216HW,2014-04-19 08:00:00,
2014-04-19 03:05:00,33.8,25.7,30.04,North,0,0.0,0.0,72,0.00,,,0.00,WUHU216HW,2014-04-19 08:05:00,
2014-04-19 03:10:00,33.8,25.4,30.04,North,0,0.0,0.0,71,0.00,,,0.00,WUHU216HW,2014-04-19 08:10:00,
2014-04-19 03:15:00,33.8,25.7,30.03,North,0,0.0,0.0,72,0.00,,,0.00,WUHU216HW,2014-04-19 08:15:00,
2014-04-19 03:21:00,33.7,25.5,30.04,North,0,0.0,0.0,72,0.00,,,0.00,WUHU216HW,2014-04-19 08:21:00,
2014-04-19 03:26:00,33.5,25.4,30.04,North,0,0.0,0.0,72,0.00,,,0.00,WUHU216HW,2014-04-19 08:26:00,
2014-04-19 03:31:00,33.5,25.4,30.04,North,0,0.0,0.0,72,0.00,,,0.00,WUHU216HW,2014-04-19 08:31:00,
2014-04-19 03:36:00,33.3,25.2,30.04,North,0,0.0,0.0,72,0.00,,,0.00,WUHU216HW,2014-04-19 08:36:00,
2014-04-19 03:41:00,33.3,25.5,30.04,North,0,0.0,0.0,73,0.00,,,0.00,WUHU216HW,2014-04-19 08:41:00,
2014-04-19 03:46:00,33.3,25.5,30.04,North,0,0.0,0.0,73,0.00,,,0.00,WUHU216HW,2014-04-19 08:46:00,
2014-04-19 03:51:00,33.5,25.7,30.04,North,0,0.0,0.0,73,0.00,,,0.00,WUHU216HW,2014-04-19 08:51:00,
2014-04-19 03:56:00,33.5,25.7,30.04,North,0,0.0,0.0,73,0.00,,,0.00,WUHU216HW,2014-04-19 08:56:00,
2014-04-19 04:01:00,33.3,25.5,30.03,North,0,0.0,0.0,73,0.00,,,0.00,WUHU216HW,2014-04-19 09:01:00,
2014-04-19 04:06:00,33.3,25.5,30.04,North,0,0.0,0.0,73,0.00,,,0.00,WUHU216HW,2014-04-19 09:06:00,
2014-04-19 04:11:00,33.3,25.5,30.04,North,0,0.0,0.0,73,0.00,,,0.00,WUHU216HW,2014-04-19 09:11:00,
2014-04-19 04:16:00,33.3,25.5,30.04,North,0,0.0,0.0,73,0.00,,,0.00,WUHU216HW,2014-04-19 09:16:00,
2014-04-19 04:21:00,33.1,25.4,30.04,North,0,0.0,0.0,73,0.00,,,0.00,WUHU216HW,2014-04-19 09:21:00,
2014-04-19 04:26:00,32.9,25.2,30.04,North,0,0.0,0.0,73,0.00,,,0.00,WUHU216HW,2014-04-19 09:26:00,
2014-04-19 04:31:00,32.9,25.2,30.04,North,0,0.0,0.0,73,0.00,,,0.00,WUHU216HW,2014-04-19 09:31:00,
2014-04-19 04:36:00,32.9,25.2,30.04,North,0,0.0,0.0,73,0.00,,,0.00,WUHU216HW,2014-04-19 09:36:00,
2014-04-19 04:41:00,33.1,25.4,30.05,North,0,0.0,0.0,73,0.00,,,0.00,WUHU216HW,2014-04-19 09:41:00,
2014-04-19 04:46:00,33.1,25.4,30.04,North,0,0.0,0.0,73,0.00,,,0.00,WUHU216HW,2014-04-19 09:46:00,
2014-04-19 04:51:00,33.1,25.4,30.04,North,0,0.0,0.0,73,0.00,,,0.00,WUHU216HW,2014-04-19 09:51:00,
2014-04-19 04:56:00,33.1,25.4,30.04,North,0,0.0,0.0,73,0.00,,,0.00,WUHU216HW,2014-04-19 09:56:00,
2014-04-19 05:01:00,33.1,25.4,30.04,North,0,0.0,0.0,73,0.00,,,0.00,WUHU216HW,2014-04-19 10:01:00,
2014-04-19 05:06:00,33.3,25.5,30.04,North,0,0.0,0.0,73,0.00,,,0.00,WUHU216HW,2014-04-19 10:06:00,
2014-04-19 05:11:00,33.1,25.4,30.04,North,0,0.0,0.0,73,0.00,,,0.00,WUHU216HW,2014-04-19 10:11:00,
2014-04-19 05:16:00,33.1,25.4,30.04,North,0,0.0,0.0,73,0.00,,,0.00,WUHU216HW,2014-04-19 10:16:00,
2014-04-19 05:21:00,33.1,25.4,30.04,North,0,0.0,0.0,73,0.00,,,0.00,WUHU216HW,2014-04-19 10:21:00,
2014-04-19 05:26:00,33.1,25.4,30.03,North,0,0.0,0.0,73,0.00,,,0.00,WUHU216HW,2014-04-19 10:26:00,
2014-04-19 05:31:00,33.1,25.4,30.03,North,0,0.0,0.0,73,0.00,,,0.00,WUHU216HW,2014-04-19 10:31:00,
2014-04-19 05:36:00,33.1,25.4,30.03,North,0,0.0,0.0,73,0.00,,,0.00,WUHU216HW,2014-04-19 10:36:00,
2014-04-19 05:41:00,32.9,25.2,30.03,North,0,0.0,0.0,73,0.00,,,0.00,WUHU216HW,2014-04-19 10:41:00,
2014-04-19 05:46:00,32.9,25.2,30.03,North,0,0.0,0.0,73,0.00,,,0.00,WUHU216HW,2014-04-19 10:46:00,
2014-04-19 05:51:00,32.9,25.2,30.03,North,0,0.0,0.0,73,0.00,,,0.00,WUHU216HW,2014-04-19 10:51:00,
2014-04-19 06:00:00,32.9,25.2,30.03,North,0,0.0,0.0,73,0.00,,,0.00,WUHU216HW,2014-04-19 11:00:00,
2014-04-19 06:05:00,32.8,25.0,30.03,North,0,0.0,0.0,73,0.00,,,0.00,WUHU216HW,2014-04-19 11:05:00,
2014-04-19 06:10:00,32.8,25.0,30.03,North,0,0.0,0.0,73,0.00,,,0.00,WUHU216HW,2014-04-19 11:10:00,
2014-04-19 06:15:00,32.8,25.0,30.04,North,0,0.0,0.0,73,0.00,,,0.00,WUHU216HW,2014-04-19 11:15:00,
2014-04-19 06:20:00,32.8,25.4,30.03,North,0,0.0,0.0,74,0.00,,,0.00,WUHU216HW,2014-04-19 11:20:00,
2014-04-19 06:25:00,32.6,25.2,30.03,North,0,0.0,0.0,74,0.00,,,0.00,WUHU216HW,2014-04-19 11:25:00,
2014-04-19 06:30:00,32.6,25.2,30.03,North,0,0.0,0.0,74,0.00,,,0.00,WUHU216HW,2014-04-19 11:30:00,
2014-04-19 06:35:00,32.6,25.5,30.03,North,0,0.0,0.0,75,0.00,,,0.00,WUHU216HW,2014-04-19 11:35:00,
2014-04-19 06:40:00,32.8,25.7,30.04,North,0,0.0,0.0,75,0.00,,,0.00,WUHU216HW,2014-04-19 11:40:00,
2014-04-19 06:45:00,32.8,25.7,30.03,North,0,0.0,0.0,75,0.00,,,0.00,WUHU216HW,2014-04-19 11:45:00,
2014-04-19 06:50:00,32.8,25.7,30.04,North,0,0.0,0.0,75,0.00,,,0.00,WUHU216HW,2014-04-19 11:50:00,
2014-04-19 06:55:00,32.9,25.8,30.04,North,0,0.0,0.0,75,0.00,,,0.00,WUHU216HW,2014-04-19 11:55:00,
2014-04-19 07:00:00,33.1,26.3,30.04,North,0,0.0,0.0,76,0.00,,,0.00,WUHU216HW,2014-04-19 12:00:00,
2014-04-19 07:05:00,33.5,26.6,30.04,North,0,0.0,0.0,76,0.00,,,0.00,WUHU216HW,2014-04-19 12:05:00,
2014-04-19 07:10:00,33.5,26.3,30.04,North,0,0.0,0.0,75,0.00,,,0.00,WUHU216HW,2014-04-19 12:10:00,
2014-04-19 07:15:00,33.8,27.0,30.04,North,0,0.0,0.0,76,0.00,,,0.00,WUHU216HW,2014-04-19 12:15:00,
2014-04-19 07:20:00,34.2,27.0,30.04,North,0,0.0,0.0,75,0.00,,,0.00,WUHU216HW,2014-04-19 12:20:00,
2014-04-19 07:25:00,34.4,27.2,30.04,North,0,0.0,0.0,75,0.00,,,0.00,WUHU216HW,2014-04-19 12:25:00,
2014-04-19 07:30:00,34.7,27.5,30.04,North,0,0.0,0.0,75,0.00,,,0.00,WUHU216HW,2014-04-19 12:30:00,
2014-04-19 07:35:00,34.7,27.5,30.04,North,0,0.0,0.0,75,0.00,,,0.00,WUHU216HW,2014-04-19 12:35:00,
2014-04-19 07:57:00,37.3,29.7,30.05,North,0,0.0,0.0,74,0.00,,,0.00,WUHU216HW,2014-04-19 12:57:00,
2014-04-19 08:02:00,37.8,30.2,30.05,North,0,0.0,0.0,74,0.00,,,0.00,WUHU216HW,2014-04-19 13:02:00,
2014-04-19 08:07:00,38.2,30.2,30.05,North,0,0.0,0.0,73,0.00,,,0.00,WUHU216HW,2014-04-19 13:07:00,
2014-04-19 08:12:00,38.5,30.2,30.05,North,0,0.0,0.0,72,0.00,,,0.00,WUHU216HW,2014-04-19 13:12:00,
2014-04-19 08:17:00,38.9,30.6,30.05,North,0,0.0,0.0,72,0.00,,,0.00,WUHU216HW,2014-04-19 13:17:00,
2014-04-19 08:22:00,39.6,31.3,30.05,North,0,0.0,0.0,72,0.00,,,0.00,WUHU216HW,2014-04-19 13:22:00,
2014-04-19 08:27:00,40.1,31.5,30.05,North,0,0.0,0.0,71,0.00,,,0.00,WUHU216HW,2014-04-19 13:27:00,
2014-04-19 08:32:00,40.3,31.3,30.04,North,0,0.0,0.0,70,0.00,,,0.00,WUHU216HW,2014-04-19 13:32:00,
2014-04-19 08:37:00,40.7,31.3,30.04,North,0,0.0,0.0,69,0.00,,,0.00,WUHU216HW,2014-04-19 13:37:00,
2014-04-19 08:42:00,41.0,31.7,30.04,North,0,0.0,0.0,69,0.00,,,0.00,WUHU216HW,2014-04-19 13:42:00,
2014-04-19 08:47:00,41.4,31.7,30.03,North,0,0.0,0.0,68,0.00,,,0.00,WUHU216HW,2014-04-19 13:47:00,
2014-04-19 08:52:00,41.6,31.8,30.03,North,0,0.0,0.0,68,0.00,,,0.00,WUHU216HW,2014-04-19 13:52:00,
2014-04-19 08:57:00,41.9,31.8,30.03,North,0,0.0,0.0,67,0.00,,,0.00,WUHU216HW,2014-04-19 13:57:00,
2014-04-19 09:02:00,42.7,32.9,30.03,North,0,0.0,0.0,68,0.00,,,0.00,WUHU216HW,2014-04-19 14:02:00,
2014-04-19 09:07:00,43.2,33.0,30.03,North,0,0.0,0.0,67,0.00,,,0.00,WUHU216HW,2014-04-19 14:07:00,
2014-04-19 09:12:00,43.6,33.0,30.03,North,0,0.0,0.0,66,0.00,,,0.00,WUHU216HW,2014-04-19 14:12:00,
2014-04-19 09:17:00,43.9,32.5,30.03,North,0,0.0,0.0,64,0.00,,,0.00,WUHU216HW,2014-04-19 14:17:00,